KBYH/BYH METAR and TAF weather

Enter ICAO airport designator
Station Type Date Time Source
KBYH METAR 2020/09/18 20:52 UTC NOAA

KBYH 182052Z 03011G20KT 10SM SKC 26/13 A3014 RMK LAST


Station Type Date Time Source
KBYH Decoded METAR 2020/09/18 20:52 UTC NOAA

Eaker Air Force Base, AR, United States (KBYH) 35-58N 089-57W
Sep 18, 2020 - 04:52 PM EDT / 2020.09.18 2052 UTC
Wind: from the NNE (030 degrees) at 13 MPH (11 KT) gusting to 23 MPH (20 KT):0
Visibility: 10 mile(s):0
Sky conditions: clear
Temperature: 78 F (26 C)
Dew Point: 55 F (13 C)
Relative Humidity: 44%
Pressure (altimeter): 30.14 in. Hg (1020 hPa)
ob: KBYH 182052Z 03011G20KT 10SM SKC 26/13 A3014 RMK LAST
cycle: 21

Station Type Date Time Source
KBYH TAF UTC NOAA

Error!

Example: see airport list